Date,TemperatureHighF,TemperatureAvgF,TemperatureLowF,DewpointHighF,DewpointAvgF,DewpointLowF,HumidityHigh,HumidityAvg,HumidityLow,PressureMaxIn,PressureMinIn,WindSpeedMaxMPH,WindSpeedAvgMPH,GustSpeedMaxMPH,PrecipitationSumIn
2013-3-1,57,48,41,37,32,27,65,54,46,30.16,30.02,10,1,10,0.00
2013-3-2,49,41,34,30,25,21,68,54,48,30.19,30.11,16,3,16,1.81
2013-3-3,52,42,34,33,25,20,66,52,47,30.22,30.11,13,2,13,1.81
2013-3-4,62,40,33,42,31,26,86,69,48,30.19,30.14,15,1,15,0.00
2013-3-5,72,62,50,61,51,35,100,72,47,30.14,29.93,14,2,15,1.81
2013-3-6,59,47,41,38,30,24,64,53,46,30.28,30.14,11,2,13,0.00
2013-3-7,64,49,36,43,33,25,67,55,45,30.34,30.19,9,1,9,0.00
2013-3-8,70,53,37,49,38,29,78,58,46,30.31,30.19,9,1,9,0.00
2013-3-9,69,58,46,55,46,37,86,67,46,30.19,30.05,15,3,15,0.00
2013-3-10,72,65,59,60,56,53,88,74,54,30.08,29.96,22,7,22,0.00
2013-3-11,70,62,47,66,57,39,96,85,58,29.96,29.84,17,4,17,0.71
2013-3-12,63,52,42,43,37,32,83,59,45,30.19,29.96,13,3,13,0.55
2013-3-13,66,52,39,45,37,30,82,58,45,30.34,30.19,13,2,13,0.55
2013-3-14,64,50,39,43,33,23,62,51,45,30.43,30.28,10,2,10,0.55
2013-3-15,68,54,39,51,40,31,97,59,46,30.31,30.16,13,1,13,0.55
2013-3-16,73,52,45,59,43,39,100,71,45,30.17,29.99,13,0,13,0.55
2013-3-17,71,61,51,66,53,44,100,76,54,30.02,29.90,9,1,9,0.00
2013-3-18,78,69,61,68,62,57,100,81,58,29.93,29.78,16,2,16,0.00
2013-3-19,77,71,61,53,50,41,64,48,44,30.05,29.93,10,2,10,0.00
2013-3-20,65,58,46,44,38,31,57,48,46,30.11,29.99,10,2,10,0.00
2013-3-21,66,49,41,45,32,28,67,53,46,30.08,29.90,10,1,10,0.00
2013-3-22,66,58,50,51,44,36,66,59,47,29.96,29.87,17,3,17,0.00
2013-3-23,75,65,61,68,55,44,95,70,53,29.90,29.69,11,2,11,0.87
2013-3-24,78,67,50,69,50,31,95,56,44,29.93,29.60,17,4,17,0.87
2013-3-25,59,49,39,38,31,23,55,49,46,30.22,29.93,16,4,16,0.87
2013-3-26,54,40,36,34,24,21,59,53,47,30.37,30.22,9,0,9,0.00
2013-3-27,60,41,33,41,27,22,66,57,46,30.43,30.28,8,1,8,0.00
2013-3-28,68,52,36,47,36,28,82,57,46,30.37,30.22,11,1,11,0.00
2013-3-29,71,56,40,49,41,32,82,59,46,30.34,30.19,15,1,15,0.00
2013-3-30,74,55,48,59,45,41,96,70,45,30.22,30.05,13,1,13,0.00
2013-3-31,77,65,55,67,54,50,100,72,47,30.08,29.90,14,1,14,0.12